Time;durP1;ratioP1;P1;durP2;ratioP2;P2;SDS_P1;SDS_P2;PMS_P1;PMS_P2;Temp;Humidity;BMP_temperature;BMP_pressure;BME280_temperature;BME280_humidity;BME280_pressure;Samples;Min_cycle;Max_cycle;Signal;HPM_P1;HPM_P2
2023/12/12 00:01:06;;;;;;;0.80;0.30;;;10.30;99.90;;;;;;4841813;29;21203;-74
2023/12/12 00:03:35;;;;;;;0.50;0.10;;;10.30;99.90;;;;;;4839334;29;20517;-73
2023/12/12 00:06:04;;;;;;;0.50;0.10;;;10.30;99.90;;;;;;4843164;29;20983;-75
2023/12/12 00:08:31;;;;;;;4.63;1.40;;;10.30;99.90;;;;;;4841627;29;20476;-77
2023/12/12 00:10:59;;;;;;;0.50;0.10;;;10.30;99.90;;;;;;4835400;29;20514;-75
2023/12/12 00:13:27;;;;;;;0.50;0.10;;;10.30;99.90;;;;;;4840437;29;20452;-76
2023/12/12 00:15:56;;;;;;;3.00;0.30;;;10.50;99.90;;;;;;4842153;29;20538;-76
2023/12/12 00:18:24;;;;;;;0.77;0.57;;;10.40;99.90;;;;;;4841149;29;20477;-76
2023/12/12 00:20:53;;;;;;;0.93;0.30;;;10.40;99.90;;;;;;4842024;29;20474;-76
2023/12/12 00:23:21;;;;;;;0.50;0.10;;;10.40;99.90;;;;;;4841910;29;20565;-75
2023/12/12 00:25:49;;;;;;;0.50;0.10;;;10.40;99.90;;;;;;4844903;29;20518;-75
2023/12/12 00:28:17;;;;;;;0.50;0.10;;;10.40;99.90;;;;;;4845328;29;20472;-75
2023/12/12 00:30:45;;;;;;;0.50;0.20;;;10.40;99.90;;;;;;4838234;29;20493;-75
2023/12/12 00:33:13;;;;;;;0.70;0.27;;;10.30;99.90;;;;;;4845528;29;20454;-75
2023/12/12 00:35:41;;;;;;;1.03;0.93;;;10.30;99.90;;;;;;4845502;29;20473;-75
2023/12/12 00:38:10;;;;;;;0.50;0.10;;;10.40;99.90;;;;;;4846888;29;20475;-75
2023/12/12 00:40:38;;;;;;;0.50;0.10;;;10.40;99.90;;;;;;4847206;29;20483;-75
2023/12/12 00:43:06;;;;;;;0.80;0.30;;;10.40;99.90;;;;;;4844915;29;20450;-76
2023/12/12 00:45:34;;;;;;;0.50;0.10;;;10.30;99.90;;;;;;4837265;29;20489;-75
2023/12/12 00:48:02;;;;;;;2.30;0.70;;;10.30;99.90;;;;;;4837394;29;20588;-75
2023/12/12 00:50:30;;;;;;;0.50;0.10;;;10.30;99.90;;;;;;4845091;29;20467;-75
2023/12/12 00:52:58;;;;;;;0.50;0.10;;;10.30;99.90;;;;;;4845133;29;20539;-74
2023/12/12 00:55:27;;;;;;;0.50;0.10;;;10.30;99.90;;;;;;4842785;29;20484;-75
2023/12/12 00:57:55;;;;;;;0.50;0.20;;;10.20;99.90;;;;;;4833822;29;20521;-75
2023/12/12 01:00:23;;;;;;;0.50;0.10;;;10.30;99.90;;;;;;4843307;29;20540;-74
2023/12/12 01:02:51;;;;;;;8.13;0.50;;;10.30;99.90;;;;;;4845182;29;20460;-75
2023/12/12 01:05:19;;;;;;;0.50;0.20;;;10.20;99.90;;;;;;4837399;29;20572;-75
2023/12/12 01:07:47;;;;;;;1.53;0.37;;;10.20;99.90;;;;;;4845805;29;20572;-75
2023/12/12 01:10:15;;;;;;;0.60;0.30;;;10.20;99.90;;;;;;4839031;29;20843;-74
2023/12/12 01:12:44;;;;;;;0.50;0.10;;;10.20;99.90;;;;;;4842607;29;20459;-74
2023/12/12 01:15:12;;;;;;;0.50;0.10;;;10.20;99.90;;;;;;4850429;29;20490;-74
2023/12/12 01:17:40;;;;;;;0.50;0.10;;;10.10;99.90;;;;;;4856314;29;20902;-75
2023/12/12 01:20:09;;;;;;;0.50;0.10;;;10.10;99.90;;;;;;4856631;29;20510;-75
2023/12/12 01:22:37;;;;;;;0.50;0.20;;;10.10;99.90;;;;;;4853618;29;20528;-75
2023/12/12 01:25:06;;;;;;;0.60;0.60;;;10.20;99.90;;;;;;4844758;29;20460;-74
2023/12/12 01:27:34;;;;;;;0.50;0.10;;;10.20;99.90;;;;;;4843301;29;20485;-75
2023/12/12 01:30:03;;;;;;;0.50;0.10;;;10.30;99.90;;;;;;4845107;29;20580;-75
2023/12/12 01:32:31;;;;;;;0.50;0.10;;;10.30;99.90;;;;;;4837179;29;20549;-75
2023/12/12 01:34:59;;;;;;;0.50;0.10;;;10.30;99.90;;;;;;4838898;29;20458;-75
2023/12/12 01:37:27;;;;;;;0.50;0.10;;;10.40;99.90;;;;;;4843571;29;20985;-75
2023/12/12 01:39:56;;;;;;;0.50;0.10;;;10.50;99.90;;;;;;4844069;29;20461;-74
2023/12/12 01:42:23;;;;;;;0.50;0.10;;;10.50;99.90;;;;;;4843404;29;20458;-75
2023/12/12 01:44:51;;;;;;;0.50;0.10;;;10.50;99.90;;;;;;4844244;29;20457;-75
2023/12/12 01:47:21;;;;;;;0.50;0.10;;;10.60;99.90;;;;;;4843843;29;20531;-75
2023/12/12 01:49:49;;;;;;;0.50;0.20;;;10.50;99.90;;;;;;4839915;29;20494;-74
2023/12/12 01:52:18;;;;;;;0.50;0.10;;;10.50;99.90;;;;;;4834157;29;20460;-75
2023/12/12 01:54:48;;;;;;;0.60;0.40;;;10.40;99.90;;;;;;4839981;29;20460;-75
2023/12/12 01:57:19;;;;;;;0.50;0.20;;;10.30;99.90;;;;;;4837322;29;20590;-75
2023/12/12 01:59:47;;;;;;;0.50;0.20;;;10.30;99.90;;;;;;4834942;29;20545;-75
2023/12/12 02:02:17;;;;;;;1.43;0.33;;;;;;;;;;4833199;29;20550;-75
2023/12/12 02:04:49;;;;;;;0.60;0.43;;;10.30;99.90;;;;;;4836426;29;20462;-75
2023/12/12 02:07:18;;;;;;;6.53;0.80;;;10.20;99.90;;;;;;4843675;29;21010;-75
2023/12/12 02:09:47;;;;;;;0.50;0.10;;;10.30;99.90;;;;;;4836114;29;20831;-75
2023/12/12 02:12:15;;;;;;;1.30;1.20;;;10.30;99.90;;;;;;4836502;29;20540;-75
2023/12/12 02:14:43;;;;;;;0.50;0.20;;;10.40;99.90;;;;;;4836387;29;20531;-75
2023/12/12 02:17:11;;;;;;;0.50;0.10;;;10.40;99.90;;;;;;4843407;29;20876;-74
2023/12/12 02:19:39;;;;;;;0.50;0.10;;;10.30;99.90;;;;;;4843358;29;20461;-76
2023/12/12 02:22:09;;;;;;;0.50;0.10;;;10.30;99.90;;;;;;4836156;29;20457;-76
2023/12/12 02:24:36;;;;;;;0.50;0.10;;;10.40;99.90;;;;;;4836114;29;20489;-75
2023/12/12 02:27:05;;;;;;;0.50;0.10;;;10.40;99.90;;;;;;4835393;29;20503;-74
2023/12/12 02:29:33;;;;;;;0.50;0.10;;;10.40;99.90;;;;;;4842215;29;20989;-75
2023/12/12 02:32:01;;;;;;;0.60;0.40;;;10.40;99.90;;;;;;4836026;29;20453;-75
2023/12/12 02:34:29;;;;;;;0.50;0.10;;;10.30;99.90;;;;;;4843375;29;20499;-75
2023/12/12 02:36:56;;;;;;;0.60;0.40;;;10.40;99.90;;;;;;4836061;29;20484;-75
2023/12/12 02:39:26;;;;;;;0.50;0.10;;;10.40;99.90;;;;;;4835248;29;21140;-75
2023/12/12 02:41:53;;;;;;;0.50;0.20;;;10.40;99.90;;;;;;4839065;29;20459;-76
2023/12/12 02:44:21;;;;;;;0.50;0.10;;;10.30;99.90;;;;;;4840408;29;20796;-76
2023/12/12 02:46:49;;;;;;;0.50;0.10;;;10.30;99.90;;;;;;4835487;29;20506;-75
2023/12/12 02:49:17;;;;;;;0.50;0.10;;;10.40;99.90;;;;;;4843490;29;20549;-75
2023/12/12 02:51:45;;;;;;;0.50;0.10;;;10.40;99.90;;;;;;4835809;29;20448;-75
2023/12/12 02:54:13;;;;;;;0.50;0.10;;;10.40;99.90;;;;;;4843118;29;20960;-74
2023/12/12 02:56:43;;;;;;;0.50;0.10;;;10.50;99.90;;;;;;4871182;23;20583;-76
2023/12/12 02:59:11;;;;;;;0.50;0.10;;;;;;;;;;4882292;29;20463;-76
2023/12/12 03:01:39;;;;;;;0.50;0.10;;;10.50;99.90;;;;;;4874508;29;20464;-77
2023/12/12 03:04:07;;;;;;;0.50;0.10;;;10.60;99.90;;;;;;4881403;29;20482;-77
2023/12/12 03:06:35;;;;;;;0.50;0.20;;;10.60;99.90;;;;;;4864639;29;20834;-76
2023/12/12 03:09:03;;;;;;;2.60;2.50;;;10.50;99.90;;;;;;4867178;29;20505;-77
2023/12/12 03:11:33;;;;;;;0.50;0.20;;;10.40;99.90;;;;;;4870608;29;20561;-78
2023/12/12 03:14:02;;;;;;;0.50;0.10;;;10.30;99.90;;;;;;4878378;29;20820;-77
2023/12/12 03:16:30;;;;;;;9.70;0.77;;;10.30;99.90;;;;;;4872225;29;20538;-78
2023/12/12 03:18:58;;;;;;;0.50;0.10;;;10.30;99.90;;;;;;4878846;29;20472;-77
2023/12/12 03:21:26;;;;;;;0.70;0.63;;;10.30;99.90;;;;;;4871546;29;20458;-77
2023/12/12 03:23:54;;;;;;;0.50;0.10;;;10.30;99.90;;;;;;4869529;29;20520;-76
2023/12/12 03:26:22;;;;;;;0.50;0.20;;;10.30;99.90;;;;;;4870043;29;20495;-76
2023/12/12 03:28:50;;;;;;;0.50;0.10;;;10.30;99.90;;;;;;4874840;29;20461;-77
2023/12/12 03:31:19;;;;;;;0.50;0.10;;;10.30;99.90;;;;;;4869530;29;20459;-77
2023/12/12 03:33:47;;;;;;;0.50;0.10;;;10.30;99.90;;;;;;4869755;29;20464;-77
2023/12/12 03:36:15;;;;;;;0.50;0.10;;;10.30;99.90;;;;;;4882012;29;20505;-76
2023/12/12 03:38:43;;;;;;;0.50;0.10;;;10.30;99.90;;;;;;4869402;29;20513;-77
2023/12/12 03:41:12;;;;;;;0.50;0.10;;;10.40;99.90;;;;;;4879258;29;20485;-76
2023/12/12 03:43:40;;;;;;;0.50;0.10;;;10.40;99.90;;;;;;4875927;29;21731;-76
2023/12/12 03:46:12;;;;;;;0.50;0.10;;;10.40;99.90;;;;;;4865305;29;20505;-77
2023/12/12 03:48:41;;;;;;;1.53;0.50;;;10.30;99.90;;;;;;4876659;29;20437;-76
2023/12/12 03:51:10;;;;;;;0.50;0.20;;;10.30;99.90;;;;;;4874209;29;20446;-78
2023/12/12 03:53:39;;;;;;;0.50;0.10;;;10.20;99.90;;;;;;4877583;29;20512;-78
2023/12/12 03:56:08;;;;;;;0.50;0.10;;;10.20;99.90;;;;;;4869412;29;20504;-77
2023/12/12 03:58:36;;;;;;;0.50;0.10;;;10.20;99.90;;;;;;4867476;29;20514;-77
2023/12/12 04:01:06;;;;;;;0.50;0.10;;;10.20;99.90;;;;;;4875608;29;20519;-77
2023/12/12 04:03:34;;;;;;;0.50;0.10;;;10.20;99.90;;;;;;4875908;29;20870;-77
2023/12/12 04:06:04;;;;;;;0.50;0.10;;;10.20;99.90;;;;;;4861221;29;20474;-77
2023/12/12 04:08:32;;;;;;;0.50;0.10;;;10.20;99.90;;;;;;4868979;29;20892;-77
2023/12/12 04:11:00;;;;;;;0.50;0.10;;;10.10;99.90;;;;;;4868046;29;20526;-77
2023/12/12 04:13:28;;;;;;;0.50;0.10;;;10.20;99.90;;;;;;4868061;29;20549;-77
2023/12/12 04:15:57;;;;;;;0.50;0.10;;;10.20;99.90;;;;;;4867275;29;20461;-77
2023/12/12 04:18:24;;;;;;;0.50;0.10;;;10.10;99.90;;;;;;4860002;29;20486;-76
2023/12/12 04:20:52;;;;;;;0.50;0.10;;;10.20;99.90;;;;;;4864628;29;20480;-77
2023/12/12 04:23:22;;;;;;;0.50;0.10;;;10.20;99.90;;;;;;4871051;29;20886;-77
2023/12/12 04:25:49;;;;;;;0.70;0.20;;;10.10;99.90;;;;;;4863682;29;20573;-76
2023/12/12 04:28:17;;;;;;;0.50;0.10;;;10.10;99.90;;;;;;4870570;29;20888;-76
2023/12/12 04:30:46;;;;;;;0.50;0.10;;;10.10;99.90;;;;;;4866098;29;20876;-76
2023/12/12 04:33:14;;;;;;;0.50;0.13;;;10.20;99.90;;;;;;4859653;29;20948;-76
2023/12/12 04:35:42;;;;;;;0.50;0.10;;;10.10;99.90;;;;;;4859681;29;20459;-76
2023/12/12 04:38:10;;;;;;;0.50;0.10;;;10.20;99.90;;;;;;4866455;29;20447;-77
2023/12/12 04:40:39;;;;;;;0.50;0.10;;;10.20;99.90;;;;;;4878751;29;20454;-77
2023/12/12 04:43:07;;;;;;;0.50;0.10;;;10.20;99.90;;;;;;4887693;29;20900;-76
2023/12/12 04:45:35;;;;;;;0.50;0.10;;;10.20;99.90;;;;;;4865115;29;20452;-76
2023/12/12 04:48:03;;;;;;;0.50;0.10;;;10.30;99.90;;;;;;4865300;29;20506;-77
2023/12/12 04:50:31;;;;;;;0.50;0.10;;;10.20;99.90;;;;;;4868807;29;20452;-77
2023/12/12 04:52:59;;;;;;;0.50;0.10;;;10.20;99.90;;;;;;4864938;29;20502;-76
2023/12/12 04:55:26;;;;;;;0.50;0.10;;;10.20;99.90;;;;;;4873171;29;20516;-77
2023/12/12 04:57:56;;;;;;;0.50;0.10;;;10.20;99.90;;;;;;4866788;29;20489;-77
2023/12/12 05:00:24;;;;;;;0.50;0.10;;;10.20;99.90;;;;;;4865390;29;20939;-77
2023/12/12 05:02:52;;;;;;;0.50;0.10;;;;;;;;;;4864544;29;20516;-77
2023/12/12 05:05:20;;;;;;;0.50;0.10;;;10.10;99.90;;;;;;4866534;29;20455;-77
2023/12/12 05:07:48;;;;;;;0.50;0.10;;;10.10;99.90;;;;;;4870187;29;20500;-77
2023/12/12 05:10:16;;;;;;;0.50;0.10;;;10.10;99.90;;;;;;4868583;29;20469;-76
2023/12/12 05:12:44;;;;;;;0.50;0.10;;;10.10;99.90;;;;;;4866063;29;21006;-77
2023/12/12 05:15:13;;;;;;;2.00;1.90;;;10.00;99.90;;;;;;4881322;29;20527;-76
2023/12/12 05:17:41;;;;;;;0.60;0.30;;;10.00;99.90;;;;;;4881279;29;20547;-77
2023/12/12 05:20:12;;;;;;;0.50;0.10;;;;;;;;;;4885378;29;20993;-77
2023/12/12 05:22:40;;;;;;;0.50;0.10;;;;;;;;;;4879914;29;20466;-77
2023/12/12 05:25:08;;;;;;;0.50;0.10;;;9.90;99.90;;;;;;4886056;29;20469;-76
2023/12/12 05:27:37;;;;;;;0.50;0.10;;;9.80;99.90;;;;;;4881130;29;21042;-77
2023/12/12 05:30:06;;;;;;;0.50;0.20;;;9.90;99.90;;;;;;4877837;29;20463;-77
2023/12/12 05:32:35;;;;;;;0.50;0.10;;;9.80;99.90;;;;;;4866326;29;20529;-77
2023/12/12 05:35:03;;;;;;;0.50;0.10;;;9.80;99.90;;;;;;4866451;29;20446;-77
2023/12/12 05:37:31;;;;;;;0.50;0.10;;;9.70;99.90;;;;;;4866121;29;20536;-77
2023/12/12 05:39:59;;;;;;;0.50;0.10;;;9.70;99.90;;;;;;4869226;29;20458;-77
2023/12/12 05:42:27;;;;;;;0.50;0.10;;;9.70;99.90;;;;;;4869656;29;20457;-78
2023/12/12 05:44:56;;;;;;;0.50;0.10;;;9.80;99.90;;;;;;4867198;29;20551;-76
2023/12/12 05:47:23;;;;;;;0.50;0.10;;;9.70;99.90;;;;;;4875485;29;20517;-78
2023/12/12 05:49:53;;;;;;;0.50;0.20;;;9.60;99.90;;;;;;4882588;29;20483;-77
2023/12/12 05:52:21;;;;;;;0.50;0.10;;;9.60;99.90;;;;;;4866742;29;20460;-77
2023/12/12 05:54:49;;;;;;;0.60;0.53;;;12.40;99.90;;;;;;4869802;29;20456;-77
2023/12/12 05:57:16;;;;;;;0.50;0.10;;;9.50;99.90;;;;;;4863290;29;21007;-76
2023/12/12 05:59:46;;;;;;;0.50;0.10;;;9.50;99.90;;;;;;4866598;29;20478;-78
2023/12/12 06:02:14;;;;;;;0.50;0.10;;;9.50;99.90;;;;;;4868005;29;20540;-77
2023/12/12 06:04:45;;;;;;;0.50;0.10;;;;;;;;;;4872236;29;20454;-77
2023/12/12 06:07:15;;;;;;;0.50;0.10;;;9.60;99.90;;;;;;4876031;29;20477;-77
2023/12/12 06:09:43;;;;;;;0.50;0.10;;;9.60;99.90;;;;;;4868118;29;20491;-77
2023/12/12 06:12:11;;;;;;;0.50;0.10;;;9.60;99.90;;;;;;4869355;29;20889;-77
2023/12/12 06:14:39;;;;;;;0.50;0.20;;;9.50;99.90;;;;;;4875819;29;20449;-77
2023/12/12 06:17:07;;;;;;;0.70;0.33;;;9.50;99.90;;;;;;4886565;29;20547;-77
2023/12/12 06:19:35;;;;;;;0.50;0.10;;;9.50;99.90;;;;;;4880049;29;20503;-77
2023/12/12 06:22:03;;;;;;;0.50;0.10;;;9.50;99.90;;;;;;4869173;29;20525;-77
2023/12/12 06:24:36;;;;;;;0.50;0.10;;;9.50;99.90;;;;;;4865841;29;20455;-78
2023/12/12 06:27:04;;;;;;;0.50;0.10;;;9.50;99.90;;;;;;4875803;29;20495;-77
2023/12/12 06:29:32;;;;;;;0.50;0.10;;;9.50;99.90;;;;;;4868987;29;20572;-77
2023/12/12 06:32:00;;;;;;;0.50;0.10;;;9.60;99.90;;;;;;4872537;29;20548;-78
2023/12/12 06:34:28;;;;;;;0.50;0.10;;;9.60;99.90;;;;;;4869404;29;20483;-74
2023/12/12 06:36:56;;;;;;;0.50;0.10;;;9.70;99.90;;;;;;4865518;29;20505;-77
2023/12/12 06:39:25;;;;;;;0.50;0.10;;;9.80;99.90;;;;;;4866633;29;20454;-77
2023/12/12 06:41:54;;;;;;;0.50;0.10;;;9.80;99.90;;;;;;4872675;29;20514;-77
2023/12/12 06:44:22;;;;;;;3.90;2.90;;;9.70;99.90;;;;;;4871039;29;20454;-76
2023/12/12 06:46:50;;;;;;;0.50;0.10;;;9.70;99.90;;;;;;4866770;29;20501;-75
2023/12/12 06:49:18;;;;;;;0.50;0.10;;;9.80;99.90;;;;;;4866423;29;20505;-75
2023/12/12 06:51:46;;;;;;;0.50;0.10;;;9.70;99.90;;;;;;4866019;29;20507;-76
2023/12/12 06:54:14;;;;;;;0.50;0.10;;;9.60;99.90;;;;;;4872473;29;20457;-75
2023/12/12 06:56:42;;;;;;;0.50;0.10;;;9.50;99.90;;;;;;4869942;29;20505;-74
2023/12/12 06:59:12;;;;;;;0.50;0.10;;;9.50;99.90;;;;;;4877459;29;20480;-76
2023/12/12 07:01:40;;;;;;;0.50;0.10;;;9.50;99.90;;;;;;4877024;29;20528;-75
2023/12/12 07:04:08;;;;;;;0.50;0.10;;;9.50;99.90;;;;;;4869021;29;20456;-77
2023/12/12 07:06:37;;;;;;;0.50;0.10;;;9.50;99.90;;;;;;4865885;29;20469;-74
2023/12/12 07:09:04;;;;;;;0.50;0.10;;;9.50;99.90;;;;;;4868746;29;20485;-75
2023/12/12 07:11:32;;;;;;;0.50;0.10;;;9.50;99.90;;;;;;4861421;29;20927;-75
2023/12/12 07:14:00;;;;;;;0.50;0.10;;;9.50;99.90;;;;;;4873040;29;20499;-76
2023/12/12 07:16:30;;;;;;;0.50;0.10;;;9.60;99.90;;;;;;4870232;29;20472;-75
2023/12/12 07:18:58;;;;;;;0.50;0.10;;;9.50;99.90;;;;;;4873602;29;20450;-76
2023/12/12 07:21:26;;;;;;;0.50;0.10;;;9.50;99.90;;;;;;4873793;29;20453;-75
2023/12/12 07:23:54;;;;;;;0.50;0.10;;;9.50;99.90;;;;;;4876290;29;20477;-75
2023/12/12 07:26:24;;;;;;;0.50;0.10;;;9.50;99.90;;;;;;4864141;29;20496;-76
2023/12/12 07:28:52;;;;;;;0.50;0.10;;;9.50;99.90;;;;;;4875477;29;21002;-75
2023/12/12 07:31:20;;;;;;;0.70;0.70;;;9.50;99.90;;;;;;4868808;29;20459;-76
2023/12/12 07:33:50;;;;;;;0.50;0.10;;;;;;;;;;4859526;29;20876;-74
2023/12/12 07:36:17;;;;;;;0.60;0.20;;;9.60;99.90;;;;;;4859374;29;20459;-77
2023/12/12 07:38:45;;;;;;;0.50;0.10;;;9.60;99.90;;;;;;4864857;29;20499;-77
2023/12/12 07:41:15;;;;;;;0.50;0.10;;;9.60;99.90;;;;;;4867412;29;20827;-73
2023/12/12 07:43:43;;;;;;;0.50;0.10;;;9.60;99.90;;;;;;4866932;29;20548;-76
2023/12/12 07:46:10;;;;;;;0.50;0.10;;;9.60;99.90;;;;;;4866103;29;20481;-75
2023/12/12 07:48:38;;;;;;;0.50;0.10;;;9.60;99.90;;;;;;4866741;29;20462;-76
2023/12/12 07:51:10;;;;;;;0.50;0.10;;;9.60;99.90;;;;;;4860613;29;20474;-77
2023/12/12 07:53:38;;;;;;;0.50;0.10;;;9.60;99.90;;;;;;4859965;29;20882;-76
2023/12/12 07:56:06;;;;;;;0.50;0.10;;;9.60;99.90;;;;;;4878169;29;20483;-76
2023/12/12 07:58:34;;;;;;;0.50;0.10;;;9.60;99.90;;;;;;4871146;29;20508;-76
2023/12/12 08:01:03;;;;;;;0.50;0.10;;;9.60;99.90;;;;;;4868330;29;20555;-75
2023/12/12 08:03:31;;;;;;;0.50;0.10;;;9.60;99.90;;;;;;4860853;29;20679;-76
2023/12/12 08:06:00;;;;;;;0.50;0.10;;;9.60;99.90;;;;;;4867660;29;20500;-77
2023/12/12 08:08:32;;;;;;;0.50;0.10;;;9.60;99.90;;;;;;4867612;29;20527;-76
2023/12/12 08:11:00;;;;;;;0.50;0.10;;;9.60;99.90;;;;;;4863013;29;20451;-76
2023/12/12 08:13:30;;;;;;;0.50;0.30;;;9.70;99.90;;;;;;4875717;29;20516;-76
2023/12/12 08:15:58;;;;;;;0.50;0.10;;;9.60;99.90;;;;;;4868517;29;20465;-77
2023/12/12 08:18:26;;;;;;;0.50;0.10;;;9.60;99.90;;;;;;4869739;29;20478;-75
2023/12/12 08:20:55;;;;;;;0.50;0.10;;;;;;;;;;4868721;29;20444;-75
2023/12/12 08:23:22;;;;;;;0.50;0.10;;;9.60;99.90;;;;;;4865807;29;20561;-76
2023/12/12 08:25:52;;;;;;;0.80;0.20;;;9.70;99.90;;;;;;4867060;29;20496;-74
2023/12/12 08:28:20;;;;;;;0.50;0.10;;;9.60;99.90;;;;;;4867695;29;20486;-76
2023/12/12 08:30:48;;;;;;;2.07;1.87;;;;;;;;;;4865932;29;20492;-77
2023/12/12 08:33:16;;;;;;;0.50;0.10;;;9.60;99.90;;;;;;4873350;29;20446;-76
2023/12/12 08:35:44;;;;;;;0.50;0.10;;;9.70;99.90;;;;;;4875489;29;20456;-77
2023/12/12 08:38:12;;;;;;;0.50;0.10;;;9.70;99.90;;;;;;4865826;29;20537;-77
2023/12/12 08:40:40;;;;;;;8.67;8.00;;;9.70;99.90;;;;;;4871445;29;20495;-77
2023/12/12 08:43:10;;;;;;;0.50;0.10;;;9.80;99.90;;;;;;4866361;29;20451;-77
2023/12/12 08:45:38;;;;;;;0.50;0.10;;;9.70;99.90;;;;;;4868398;29;20539;-76
2023/12/12 08:48:07;;;;;;;0.50;0.10;;;9.60;99.90;;;;;;4876450;29;20461;-76
2023/12/12 08:50:35;;;;;;;0.50;0.10;;;9.60;99.90;;;;;;4878667;29;20540;-77
2023/12/12 08:53:03;;;;;;;0.50;0.10;;;9.50;99.90;;;;;;4875456;29;20463;-75
2023/12/12 08:55:31;;;;;;;0.50;0.10;;;9.60;99.90;;;;;;4869772;29;20534;-77
2023/12/12 08:57:59;;;;;;;0.50;0.10;;;9.60;99.90;;;;;;4868937;29;20845;-77
2023/12/12 09:00:29;;;;;;;0.50;0.10;;;9.60;99.90;;;;;;4872961;29;20446;-76
2023/12/12 09:02:57;;;;;;;0.50;0.10;;;9.70;99.90;;;;;;4869278;29;20452;-74
2023/12/12 09:05:25;;;;;;;0.50;0.20;;;9.80;99.90;;;;;;4877658;29;20488;-75
2023/12/12 09:07:53;;;;;;;0.50;0.10;;;9.80;99.90;;;;;;4873127;29;20467;-77
2023/12/12 09:10:21;;;;;;;0.50;0.10;;;9.90;99.90;;;;;;4871665;29;21047;-76
2023/12/12 09:12:49;;;;;;;0.50;0.10;;;;;;;;;;4875324;29;20452;-78
2023/12/12 09:15:17;;;;;;;0.50;0.10;;;9.90;99.90;;;;;;4880024;29;20450;-76
2023/12/12 09:17:46;;;;;;;0.50;0.10;;;9.90;99.90;;;;;;4872277;29;20487;-76
2023/12/12 09:20:34;;;;;;;0.60;0.20;;;9.90;99.90;;;;;;4869019;29;20461;-77
2023/12/12 09:23:02;;;;;;;0.50;0.10;;;10.00;99.90;;;;;;4875013;29;20454;-76
2023/12/12 09:25:30;;;;;;;0.50;0.10;;;10.00;99.90;;;;;;4863216;29;20454;-76
2023/12/12 09:27:58;;;;;;;0.50;0.10;;;10.00;99.90;;;;;;4865267;29;20527;-76
2023/12/12 09:30:26;;;;;;;0.50;0.10;;;10.00;99.90;;;;;;4873399;29;20488;-76
2023/12/12 09:32:56;;;;;;;0.50;0.10;;;10.00;99.90;;;;;;4873608;29;20456;-75
2023/12/12 09:35:24;;;;;;;0.50;0.10;;;9.90;99.90;;;;;;4867139;29;20468;-77
2023/12/12 09:37:52;;;;;;;0.50;0.10;;;9.90;99.90;;;;;;4864762;29;20545;-77
2023/12/12 09:40:20;;;;;;;0.50;0.10;;;10.00;99.90;;;;;;4873518;29;20480;-77
2023/12/12 09:42:49;;;;;;;0.50;0.10;;;10.00;99.90;;;;;;4873748;29;20491;-76
2023/12/12 09:45:17;;;;;;;0.50;0.10;;;10.00;99.90;;;;;;4874248;29;20489;-76
2023/12/12 09:47:46;;;;;;;0.50;0.10;;;10.10;99.90;;;;;;4877989;29;20542;-76
2023/12/12 09:50:16;;;;;;;0.50;0.10;;;10.10;99.90;;;;;;4867835;29;20580;-76
2023/12/12 09:52:46;;;;;;;0.50;0.10;;;10.10;99.90;;;;;;4873991;29;20461;-76
2023/12/12 09:55:15;;;;;;;0.50;0.10;;;10.00;99.90;;;;;;4873899;29;20492;-76
2023/12/12 09:57:43;;;;;;;0.50;0.10;;;10.00;99.90;;;;;;4866470;29;20489;-76
2023/12/12 10:00:12;;;;;;;0.50;0.10;;;10.00;99.90;;;;;;4866907;29;20527;-76
2023/12/12 10:02:40;;;;;;;0.50;0.10;;;9.90;99.90;;;;;;4873271;29;20480;-76
2023/12/12 10:05:09;;;;;;;0.50;0.10;;;10.00;99.90;;;;;;4873430;29;20533;-77
2023/12/12 10:07:41;;;;;;;0.50;0.10;;;10.00;99.90;;;;;;4871139;29;20472;-76
2023/12/12 10:10:13;;;;;;;0.50;0.10;;;12.30;99.90;;;;;;4872194;29;20566;-77
2023/12/12 10:12:42;;;;;;;0.50;0.10;;;10.10;99.90;;;;;;4873149;29;20467;-77
2023/12/12 10:15:23;;;;;;;0.50;0.10;;;10.10;99.90;;;;;;4871530;29;20463;-77
2023/12/12 10:17:56;;;;;;;0.50;0.10;;;10.10;99.90;;;;;;4870296;29;20568;-75
2023/12/12 10:20:26;;;;;;;0.50;0.10;;;10.00;99.90;;;;;;4867636;29;20445;-76
2023/12/12 10:22:58;;;;;;;0.50;0.10;;;10.00;99.90;;;;;;4875964;29;20491;-76
2023/12/12 10:25:28;;;;;;;0.50;0.10;;;10.00;99.90;;;;;;4867137;29;20484;-75
2023/12/12 10:27:57;;;;;;;0.50;0.10;;;10.00;99.90;;;;;;4877886;29;20484;-74
2023/12/12 10:30:26;;;;;;;0.50;0.10;;;10.10;99.90;;;;;;4866819;29;21000;-76
2023/12/12 10:32:56;;;;;;;0.50;0.10;;;10.10;99.90;;;;;;4874241;29;20448;-75
2023/12/12 10:35:28;;;;;;;0.50;0.30;;;10.10;99.90;;;;;;4869819;29;20456;-76
2023/12/12 10:37:58;;;;;;;0.50;0.10;;;10.20;99.90;;;;;;4873364;29;20505;-77
2023/12/12 10:40:27;;;;;;;0.50;0.10;;;10.10;99.90;;;;;;4877487;29;20534;-74
2023/12/12 10:42:56;;;;;;;0.50;0.10;;;10.10;99.90;;;;;;4868738;29;20455;-75
2023/12/12 10:45:27;;;;;;;0.60;0.30;;;10.10;99.90;;;;;;4871798;29;20527;-76
2023/12/12 10:47:58;;;;;;;0.50;0.20;;;10.10;99.90;;;;;;4875140;29;20558;-76
2023/12/12 10:50:30;;;;;;;0.50;0.10;;;10.20;99.90;;;;;;4864852;29;20527;-76
2023/12/12 10:52:59;;;;;;;0.50;0.10;;;10.10;99.90;;;;;;4872610;29;20515;-74
2023/12/12 10:55:28;;;;;;;0.50;0.10;;;10.20;99.90;;;;;;4868588;29;20464;-77
2023/12/12 10:57:57;;;;;;;0.50;0.10;;;10.20;99.90;;;;;;4868811;29;20483;-78
2023/12/12 11:00:26;;;;;;;0.50;0.10;;;10.20;99.90;;;;;;4866972;29;20531;-77
2023/12/12 11:02:55;;;;;;;0.50;0.10;;;10.30;99.90;;;;;;4864286;29;20525;-78
2023/12/12 11:05:23;;;;;;;0.50;0.10;;;10.30;99.90;;;;;;4868140;29;20480;-77
2023/12/12 11:07:53;;;;;;;0.50;0.10;;;10.30;99.90;;;;;;4869630;29;20535;-75
2023/12/12 11:10:23;;;;;;;0.50;0.10;;;10.40;99.90;;;;;;4874581;29;20448;-75
2023/12/12 11:12:54;;;;;;;0.50;0.10;;;10.20;99.90;;;;;;4873934;29;20669;-76
2023/12/12 11:15:23;;;;;;;0.50;0.20;;;10.20;99.90;;;;;;4883733;29;20483;-75
2023/12/12 11:17:52;;;;;;;0.50;0.10;;;10.30;99.90;;;;;;4883285;29;20579;-77
2023/12/12 11:20:22;;;;;;;0.50;0.20;;;10.20;99.90;;;;;;4869550;29;20499;-77
2023/12/12 11:22:52;;;;;;;0.50;0.10;;;10.20;99.90;;;;;;4863190;29;20452;-77
2023/12/12 11:25:29;;;;;;;0.50;0.10;;;10.30;99.90;;;;;;4867995;29;20457;-75
2023/12/12 11:27:58;;;;;;;0.50;0.10;;;10.20;99.90;;;;;;4869048;29;20481;-75
2023/12/12 11:30:31;;;;;;;0.50;0.10;;;10.20;99.90;;;;;;4869917;29;20455;-77
2023/12/12 11:33:00;;;;;;;0.50;0.10;;;10.30;99.90;;;;;;4861556;29;20468;-75
2023/12/12 11:35:30;;;;;;;0.50;0.10;;;10.20;99.90;;;;;;4865272;29;20822;-76
2023/12/12 11:37:59;;;;;;;0.50;0.10;;;10.20;99.90;;;;;;4864524;29;20490;-77
2023/12/12 11:40:30;;;;;;;0.50;0.10;;;10.20;99.90;;;;;;4874186;29;20517;-77
2023/12/12 11:43:17;;;;;;;0.50;0.10;;;10.20;99.90;;;;;;4861493;29;20463;-77
2023/12/12 11:45:46;;;;;;;0.60;0.20;;;10.10;99.90;;;;;;4866054;29;20573;-75
2023/12/12 11:48:15;;;;;;;0.50;0.10;;;10.20;99.90;;;;;;4862761;29;20561;-76
2023/12/12 11:50:45;;;;;;;0.50;0.10;;;10.20;99.90;;;;;;4862841;29;20452;-76
2023/12/12 11:53:40;;;;;;;0.50;0.10;;;10.30;99.90;;;;;;4869008;29;20463;-76
2023/12/12 11:56:09;;;;;;;0.50;0.10;;;10.30;99.90;;;;;;4885100;29;20473;-76
2023/12/12 11:58:38;;;;;;;0.50;0.10;;;10.30;99.90;;;;;;4892931;29;20435;-77
2023/12/12 12:01:06;;;;;;;0.50;0.10;;;10.30;99.90;;;;;;4887603;29;20504;-76
2023/12/12 12:03:35;;;;;;;1.33;0.40;;;10.30;99.90;;;;;;4881488;29;20425;-76
2023/12/12 12:06:04;;;;;;;0.50;0.20;;;10.30;99.90;;;;;;4887319;29;20478;-76
2023/12/12 12:08:32;;;;;;;0.50;0.20;;;10.30;99.90;;;;;;4888510;29;20468;-76
2023/12/12 12:11:01;;;;;;;0.50;0.10;;;;;;;;;;4887178;29;20458;-77
2023/12/12 12:13:39;;;;;;;0.50;0.10;;;;;;;;;;4871943;29;20545;-78
2023/12/12 12:16:08;;;;;;;0.50;0.10;;;10.20;99.90;;;;;;4879696;29;20483;-75
2023/12/12 12:18:37;;;;;;;0.50;0.10;;;;;;;;;;4862024;29;20469;-76
2023/12/12 12:21:07;;;;;;;0.50;0.10;;;10.30;99.90;;;;;;4870158;29;20475;-77
2023/12/12 12:23:37;;;;;;;0.50;0.10;;;10.10;99.90;;;;;;4872900;29;20485;-77
2023/12/12 12:26:05;;;;;;;0.50;0.10;;;10.10;99.90;;;;;;4867203;29;21036;-76
2023/12/12 12:28:34;;;;;;;0.60;0.40;;;10.10;99.90;;;;;;4860665;29;20461;-76
2023/12/12 12:31:04;;;;;;;1.07;0.80;;;10.10;99.90;;;;;;4859537;29;20490;-76
2023/12/12 12:33:34;;;;;;;0.50;0.10;;;10.00;99.90;;;;;;4866115;29;20956;-77
2023/12/12 12:36:02;;;;;;;0.50;0.30;;;10.10;99.90;;;;;;4860880;29;20479;-76
2023/12/12 12:38:31;;;;;;;0.50;0.10;;;10.10;99.90;;;;;;4866279;29;20611;-77
2023/12/12 12:41:00;;;;;;;0.50;0.30;;;10.10;99.90;;;;;;4860666;29;20982;-77
2023/12/12 12:43:28;;;;;;;0.50;0.20;;;9.90;99.90;;;;;;4865776;29;20522;-76
2023/12/12 12:45:58;;;;;;;0.50;0.20;;;10.00;99.90;;;;;;4871207;29;20775;-78
2023/12/12 12:48:28;;;;;;;0.50;0.10;;;10.00;99.90;;;;;;4866257;29;20456;-77
2023/12/12 12:50:58;;;;;;;0.50;0.10;;;10.00;99.90;;;;;;4882734;29;20514;-77
2023/12/12 12:53:26;;;;;;;0.50;0.20;;;10.00;99.90;;;;;;4867764;29;20491;-77
2023/12/12 12:55:55;;;;;;;0.50;0.10;;;10.10;99.90;;;;;;4866723;29;20476;-75
2023/12/12 12:58:23;;;;;;;0.50;0.10;;;10.10;99.90;;;;;;4869207;29;20478;-77
2023/12/12 13:00:51;;;;;;;0.50;0.10;;;9.90;99.90;;;;;;4876267;29;20811;-77